Time;durP1;ratioP1;P1;durP2;ratioP2;P2;SDS_P1;SDS_P2;PMS_P1;PMS_P2;Temp;Humidity;BMP_temperature;BMP_pressure;BME280_temperature;BME280_humidity;BME280_pressure;Samples;Min_cycle;Max_cycle;Signal;HPM_P1;HPM_P2
2021/05/13 00:02:07;;;;;;;2.58;1.30;;;12.30;95.60;;;;;;5096390;28;20067;-40
2021/05/13 00:04:33;;;;;;;3.80;2.00;;;12.30;95.60;;;;;;5105789;28;20490;-37
2021/05/13 00:06:58;;;;;;;2.83;1.63;;;12.30;95.60;;;;;;5098904;28;20012;-37
2021/05/13 00:09:27;;;;;;;2.78;1.50;;;12.30;95.70;;;;;;5102797;28;20036;-39
2021/05/13 00:11:54;;;;;;;8.93;1.90;;;12.30;95.70;;;;;;5101570;28;20024;-40
2021/05/13 00:14:20;;;;;;;3.65;1.80;;;12.20;95.80;;;;;;5100738;28;20107;-39
2021/05/13 00:16:46;;;;;;;4.05;1.60;;;12.20;95.80;;;;;;5103010;28;20038;-39
2021/05/13 00:19:13;;;;;;;4.68;1.77;;;12.20;95.90;;;;;;5098369;28;20024;-41
2021/05/13 00:21:40;;;;;;;3.67;1.90;;;12.10;95.90;;;;;;5105778;28;20024;-40
2021/05/13 00:24:08;;;;;;;6.85;1.80;;;12.10;95.90;;;;;;5095840;28;20093;-38
2021/05/13 00:26:36;;;;;;;4.40;1.98;;;12.00;95.90;;;;;;5105309;28;20024;-38
2021/05/13 00:29:13;;;;;;;3.10;1.90;;;12.00;96.00;;;;;;5096218;28;20028;-40
2021/05/13 00:31:39;;;;;;;3.67;1.73;;;12.00;96.00;;;;;;5104988;28;20036;-39
2021/05/13 00:34:06;;;;;;;2.85;1.40;;;12.00;96.10;;;;;;5095600;28;20054;-40
2021/05/13 00:36:34;;;;;;;5.18;1.83;;;11.90;96.10;;;;;;5106842;28;20560;-37
2021/05/13 00:39:01;;;;;;;6.82;2.08;;;11.90;96.20;;;;;;5099244;28;20080;-40
2021/05/13 00:41:27;;;;;;;6.85;2.42;;;11.90;96.20;;;;;;5086771;28;20086;-40
2021/05/13 00:43:53;;;;;;;5.28;1.92;;;11.80;96.30;;;;;;5087877;28;20024;-39
2021/05/13 00:46:21;;;;;;;3.47;1.60;;;11.80;96.30;;;;;;5087262;28;20020;-39
2021/05/13 00:48:46;;;;;;;4.13;1.80;;;11.80;96.40;;;;;;5092840;28;20382;-39
2021/05/13 00:51:13;;;;;;;4.60;1.58;;;11.80;96.50;;;;;;5105465;28;20431;-39
2021/05/13 00:53:44;;;;;;;4.05;1.70;;;11.80;96.60;;;;;;5097366;28;20023;-39
2021/05/13 00:56:09;;;;;;;4.68;1.80;;;11.80;96.70;;;;;;5103423;28;20024;-39
2021/05/13 00:58:42;;;;;;;2.85;1.52;;;11.80;96.70;;;;;;5099281;28;20521;-39
2021/05/13 01:01:11;;;;;;;3.72;1.70;;;11.80;96.80;;;;;;5102291;28;20172;-37
2021/05/13 01:03:37;;;;;;;3.63;1.52;;;11.70;96.80;;;;;;5100024;28;20032;-39
2021/05/13 01:06:04;;;;;;;3.75;1.50;;;11.80;96.90;;;;;;5099002;28;20038;-39
2021/05/13 01:08:30;;;;;;;4.50;1.70;;;11.70;96.90;;;;;;5102474;28;20490;-39
2021/05/13 01:10:55;;;;;;;4.45;2.08;;;11.70;97.00;;;;;;5096860;28;20111;-39
2021/05/13 01:13:22;;;;;;;3.70;1.90;;;11.70;97.10;;;;;;5104719;28;20024;-38
2021/05/13 01:15:54;;;;;;;4.28;2.13;;;11.60;97.10;;;;;;5094697;28;20077;-38
2021/05/13 01:18:22;;;;;;;5.93;1.90;;;11.60;97.20;;;;;;5104849;28;20297;-40
2021/05/13 01:20:48;;;;;;;5.88;2.13;;;11.60;97.30;;;;;;5094354;28;20077;-40
2021/05/13 01:23:14;;;;;;;4.93;2.58;;;11.60;97.30;;;;;;5106053;28;20062;-40
2021/05/13 01:25:51;;;;;;;5.38;2.10;;;11.60;97.40;;;;;;5094103;28;20051;-40
2021/05/13 01:28:18;;;;;;;5.20;2.25;;;11.60;97.40;;;;;;5106406;28;20072;-39
2021/05/13 01:30:45;;;;;;;4.03;2.08;;;11.50;97.40;;;;;;5098201;28;20457;-41
2021/05/13 01:33:12;;;;;;;4.03;2.15;;;11.50;97.50;;;;;;5085771;28;20107;-38
2021/05/13 01:35:39;;;;;;;3.55;2.00;;;11.50;97.50;;;;;;5097731;28;20417;-40
2021/05/13 01:38:07;;;;;;;4.35;2.17;;;11.50;97.60;;;;;;5085975;28;20124;-40
2021/05/13 01:40:34;;;;;;;4.07;2.10;;;11.50;97.70;;;;;;5096757;28;20051;-40
2021/05/13 01:43:00;;;;;;;4.72;2.95;;;11.40;97.70;;;;;;5089671;28;20450;-40
2021/05/13 01:45:26;;;;;;;6.63;2.35;;;11.40;97.80;;;;;;5096435;28;20796;-40
2021/05/13 01:47:51;;;;;;;3.88;2.13;;;11.40;97.90;;;;;;5102139;28;20055;-40
2021/05/13 01:50:17;;;;;;;4.40;2.10;;;11.40;97.90;;;;;;5099093;28;20031;-38
2021/05/13 01:52:42;;;;;;;4.03;2.45;;;11.40;98.00;;;;;;5099632;28;20046;-39
2021/05/13 01:55:08;;;;;;;4.28;2.50;;;11.40;98.00;;;;;;5101686;28;20466;-38
2021/05/13 01:57:34;;;;;;;4.75;2.55;;;11.30;98.10;;;;;;5096856;28;20370;-39
2021/05/13 01:59:59;;;;;;;4.82;2.15;;;11.30;98.10;;;;;;5104197;28;20473;-38
2021/05/13 02:02:25;;;;;;;6.22;2.50;;;11.30;98.20;;;;;;5105335;28;20051;-39
2021/05/13 02:04:50;;;;;;;4.13;2.05;;;11.30;98.20;;;;;;5105435;28;20020;-39
2021/05/13 02:07:16;;;;;;;5.85;2.70;;;11.30;98.30;;;;;;5098685;28;20024;-39
2021/05/13 02:09:42;;;;;;;4.45;2.58;;;11.30;98.30;;;;;;5109070;28;20015;-38
2021/05/13 02:12:08;;;;;;;3.80;2.50;;;11.30;98.40;;;;;;5097215;28;20074;-39
2021/05/13 02:14:33;;;;;;;4.05;2.40;;;11.30;98.40;;;;;;5110212;28;20044;-36
2021/05/13 02:16:59;;;;;;;6.05;2.63;;;11.20;98.40;;;;;;5096180;28;20074;-36
2021/05/13 02:19:24;;;;;;;5.68;2.88;;;11.20;98.50;;;;;;5110221;28;20085;-37
2021/05/13 02:21:50;;;;;;;6.50;3.25;;;11.20;98.50;;;;;;5098268;28;20024;-39
2021/05/13 02:24:16;;;;;;;4.60;2.60;;;11.20;98.60;;;;;;5107771;28;20035;-38
2021/05/13 02:26:41;;;;;;;3.83;2.65;;;11.20;98.60;;;;;;5100568;28;20020;-39
2021/05/13 02:29:07;;;;;;;5.88;2.97;;;11.20;98.60;;;;;;5105205;28;20480;-38
2021/05/13 02:31:33;;;;;;;7.88;3.70;;;11.20;98.60;;;;;;5103583;28;20052;-37
2021/05/13 02:33:58;;;;;;;4.53;3.03;;;11.10;98.70;;;;;;5102246;28;20366;-40
2021/05/13 02:36:24;;;;;;;4.77;2.90;;;11.10;98.70;;;;;;5105756;28;20040;-40
2021/05/13 02:38:49;;;;;;;4.97;3.60;;;11.10;98.80;;;;;;5099081;28;20517;-40
2021/05/13 02:41:15;;;;;;;7.65;3.30;;;11.10;98.80;;;;;;5108244;28;20017;-40
2021/05/13 02:43:41;;;;;;;5.07;3.13;;;11.10;98.90;;;;;;5097139;28;20398;-42
2021/05/13 02:46:06;;;;;;;6.32;3.05;;;11.10;98.90;;;;;;5108263;28;20064;-40
2021/05/13 02:48:32;;;;;;;5.80;3.20;;;11.00;99.00;;;;;;5097659;28;20471;-40
2021/05/13 02:50:57;;;;;;;8.52;3.67;;;11.10;99.00;;;;;;5108437;28;20103;-42
2021/05/13 02:53:23;;;;;;;8.52;3.70;;;11.00;99.00;;;;;;5096320;28;20043;-39
2021/05/13 02:55:48;;;;;;;6.40;3.70;;;11.00;99.00;;;;;;5108965;28;20019;-39
2021/05/13 02:58:14;;;;;;;6.60;3.90;;;11.00;99.10;;;;;;5095533;28;20032;-39
2021/05/13 03:03:24;;;;;;;6.25;3.45;;;11.00;99.20;;;;;;5096135;28;20086;-39
2021/05/13 03:05:52;;;;;;;5.70;4.47;;;11.00;99.20;;;;;;5107658;28;20039;-39
2021/05/13 03:08:17;;;;;;;7.57;3.75;;;10.90;99.20;;;;;;5098601;28;20115;-36
2021/05/13 03:10:44;;;;;;;6.97;4.07;;;10.90;99.30;;;;;;5105668;28;20028;-38
2021/05/13 03:13:14;;;;;;;7.95;3.80;;;10.90;99.30;;;;;;5100497;28;20055;-39
2021/05/13 03:15:39;;;;;;;7.72;4.10;;;10.90;99.60;;;;;;5103634;28;20038;-38
2021/05/13 03:18:05;;;;;;;5.22;3.30;;;10.90;99.40;;;;;;5102896;28;20032;-39
2021/05/13 03:20:44;;;;;;;6.25;3.80;;;10.90;99.50;;;;;;5100652;28;20152;-38
2021/05/13 03:23:12;;;;;;;7.15;5.10;;;10.90;99.50;;;;;;5103751;28;20033;-39
2021/05/13 03:25:41;;;;;;;6.68;3.95;;;10.80;99.50;;;;;;5099949;28;20172;-39
2021/05/13 03:28:08;;;;;;;7.72;4.07;;;10.80;99.50;;;;;;5105291;28;20362;-39
2021/05/13 03:30:40;;;;;;;6.57;3.95;;;10.80;99.50;;;;;;5098456;28;20329;-38
2021/05/13 03:33:06;;;;;;;6.97;3.95;;;10.80;99.60;;;;;;5106451;28;20745;-41
2021/05/13 03:35:33;;;;;;;7.05;3.45;;;10.80;99.60;;;;;;5096925;28;20117;-39
2021/05/13 03:37:59;;;;;;;6.18;3.72;;;10.80;99.60;;;;;;5106563;28;20036;-39
2021/05/13 03:40:24;;;;;;;6.88;3.67;;;10.70;99.60;;;;;;5099110;28;20024;-39
2021/05/13 03:42:50;;;;;;;5.22;3.53;;;10.70;99.70;;;;;;5087874;28;20115;-40
2021/05/13 03:45:15;;;;;;;5.47;3.60;;;10.70;99.70;;;;;;5094671;28;20032;-39
2021/05/13 03:47:41;;;;;;;6.93;3.90;;;10.70;99.70;;;;;;5107412;28;20110;-39
2021/05/13 03:50:08;;;;;;;6.20;3.80;;;10.70;99.70;;;;;;5095346;28;20103;-39
2021/05/13 03:52:33;;;;;;;6.07;3.85;;;10.70;99.90;;;;;;5107540;28;20123;-39
2021/05/13 03:54:59;;;;;;;8.23;4.40;;;10.70;99.70;;;;;;5095969;28;20135;-36
2021/05/13 03:57:24;;;;;;;8.35;4.32;;;10.60;99.60;;;;;;5106150;28;20105;-39
2021/05/13 03:59:52;;;;;;;5.90;4.30;;;10.60;99.70;;;;;;5099080;28;20144;-38
2021/05/13 04:04:53;;;;;;;7.82;5.18;;;10.50;99.70;;;;;;5100181;28;20024;-40
2021/05/13 04:07:18;;;;;;;7.90;5.43;;;10.50;99.70;;;;;;5102941;28;20148;-39
2021/05/13 04:09:44;;;;;;;11.68;6.38;;;10.50;99.80;;;;;;5101516;28;20046;-39
2021/05/13 04:12:09;;;;;;;10.95;6.70;;;10.50;99.80;;;;;;5099905;28;20053;-41
2021/05/13 04:14:35;;;;;;;12.15;7.47;;;10.50;99.80;;;;;;5104799;28;20031;-39
2021/05/13 04:17:02;;;;;;;10.77;6.60;;;10.50;99.90;;;;;;5096858;28;20532;-39
2021/05/13 04:19:27;;;;;;;9.18;6.68;;;10.50;99.90;;;;;;5105579;28;20032;-39
2021/05/13 04:21:53;;;;;;;9.70;6.50;;;10.50;99.90;;;;;;5095063;28;20201;-38
2021/05/13 04:24:18;;;;;;;8.10;6.75;;;10.50;99.90;;;;;;5107119;28;20032;-39
2021/05/13 04:26:45;;;;;;;10.60;7.05;;;10.50;99.90;;;;;;5093604;28;20020;-39
2021/05/13 04:29:11;;;;;;;9.30;6.40;;;10.60;99.90;;;;;;5107244;28;20077;-40
2021/05/13 04:31:37;;;;;;;10.68;6.55;;;10.60;99.90;;;;;;5094107;28;20111;-40
2021/05/13 04:34:04;;;;;;;10.02;6.03;;;10.60;99.90;;;;;;5106907;28;20103;-40
2021/05/13 04:36:30;;;;;;;8.38;6.18;;;10.60;99.90;;;;;;5094073;28;20039;-40
2021/05/13 04:38:55;;;;;;;6.78;5.53;;;10.70;99.90;;;;;;5106813;28;20031;-39
2021/05/13 04:41:21;;;;;;;8.85;6.35;;;10.70;99.90;;;;;;5096631;28;20024;-38
2021/05/13 04:43:47;;;;;;;8.45;6.25;;;10.70;99.90;;;;;;5095353;28;20908;-40
2021/05/13 04:46:15;;;;;;;7.85;6.43;;;10.70;99.90;;;;;;5093408;28;20047;-40
2021/05/13 04:51:19;;;;;;;11.60;6.93;;;10.80;99.90;;;;;;5092179;28;20031;-37
2021/05/13 04:53:47;;;;;;;8.82;6.90;;;10.80;99.90;;;;;;5092104;28;20494;-40
2021/05/13 04:56:13;;;;;;;9.30;6.93;;;10.80;99.90;;;;;;5090185;28;20170;-40
2021/05/13 04:58:42;;;;;;;8.70;6.72;;;10.90;99.90;;;;;;5093707;28;20428;-38
2021/05/13 05:01:10;;;;;;;8.50;6.30;;;10.90;99.90;;;;;;5088124;28;20024;-39
2021/05/13 05:03:36;;;;;;;8.02;6.70;;;10.90;99.90;;;;;;5096558;28;20036;-40
2021/05/13 05:06:02;;;;;;;11.85;6.65;;;10.90;99.90;;;;;;5086659;28;20093;-39
2021/05/13 05:08:27;;;;;;;7.95;7.03;;;11.00;99.90;;;;;;5097778;28;20416;-38
2021/05/13 05:10:53;;;;;;;8.27;6.53;;;11.10;99.90;;;;;;5085896;28;20028;-38
2021/05/13 05:13:18;;;;;;;10.70;6.85;;;11.10;99.90;;;;;;5097819;28;20028;-39
2021/05/13 05:15:44;;;;;;;9.18;7.22;;;11.20;99.90;;;;;;5085549;28;20074;-40
2021/05/13 05:18:17;;;;;;;9.55;7.95;;;11.20;99.90;;;;;;5097985;28;20039;-39
2021/05/13 05:20:43;;;;;;;12.57;8.25;;;11.20;99.90;;;;;;5085312;28;20509;-39
2021/05/13 05:23:08;;;;;;;9.98;7.88;;;11.20;99.90;;;;;;5098485;28;20038;-37
2021/05/13 05:25:34;;;;;;;11.23;8.18;;;11.30;99.90;;;;;;5085403;28;20028;-38
2021/05/13 05:27:59;;;;;;;10.38;7.93;;;11.30;99.90;;;;;;5095824;28;20500;-42
2021/05/13 05:30:25;;;;;;;9.13;7.97;;;11.30;99.90;;;;;;5088094;28;20027;-41
2021/05/13 05:32:50;;;;;;;9.05;7.38;;;11.40;99.90;;;;;;5092473;28;20020;-39
2021/05/13 05:35:16;;;;;;;12.75;8.35;;;11.40;99.90;;;;;;5090140;28;20183;-40
2021/05/13 05:37:44;;;;;;;12.80;8.80;;;11.40;99.90;;;;;;5089650;28;20043;-40
2021/05/13 05:40:12;;;;;;;12.20;8.45;;;11.50;99.90;;;;;;5093047;28;20062;-39
2021/05/13 05:42:38;;;;;;;10.40;8.05;;;11.50;99.90;;;;;;5088066;28;20450;-37
2021/05/13 05:45:04;;;;;;;9.77;7.78;;;11.50;99.90;;;;;;5088502;28;20020;-42
2021/05/13 05:47:30;;;;;;;10.07;7.70;;;11.60;99.90;;;;;;5086044;28;20036;-40
2021/05/13 05:49:55;;;;;;;8.18;7.03;;;11.70;99.90;;;;;;5096685;28;20020;-40
2021/05/13 05:52:21;;;;;;;11.20;8.10;;;11.60;99.90;;;;;;5087110;28;20584;-39
2021/05/13 05:54:47;;;;;;;8.95;8.05;;;11.70;99.90;;;;;;5096209;28;20020;-37
2021/05/13 05:57:12;;;;;;;9.85;7.93;;;11.70;99.90;;;;;;5085475;28;20044;-39
2021/05/13 05:59:38;;;;;;;9.57;7.93;;;11.80;99.90;;;;;;5098004;28;20076;-39
2021/05/13 06:02:03;;;;;;;10.55;7.97;;;11.80;99.90;;;;;;5085108;28;20051;-40
2021/05/13 06:04:29;;;;;;;10.35;8.00;;;11.80;99.90;;;;;;5098091;28;20019;-38
2021/05/13 06:06:54;;;;;;;12.82;8.50;;;11.90;99.90;;;;;;5106314;28;20026;-37
2021/05/13 06:09:20;;;;;;;8.93;8.00;;;11.90;99.90;;;;;;5101061;28;20470;-40
2021/05/13 06:11:45;;;;;;;10.75;8.20;;;12.00;99.90;;;;;;5087773;28;20168;-39
2021/05/13 06:14:11;;;;;;;11.27;8.07;;;12.00;99.90;;;;;;5092330;28;20111;-40
2021/05/13 06:16:36;;;;;;;10.20;8.93;;;12.10;99.90;;;;;;5090465;28;20165;-40
2021/05/13 06:19:02;;;;;;;13.15;8.98;;;12.10;99.90;;;;;;5089572;28;20084;-39
2021/05/13 06:21:28;;;;;;;11.60;8.57;;;12.10;99.90;;;;;;5092562;28;20051;-40
2021/05/13 06:23:57;;;;;;;8.80;8.00;;;12.20;99.90;;;;;;5087103;28;20613;-38
2021/05/13 06:26:25;;;;;;;10.02;8.82;;;12.20;99.90;;;;;;5095941;28;20085;-39
2021/05/13 06:28:51;;;;;;;10.25;7.68;;;12.30;99.90;;;;;;5085434;28;20024;-39
2021/05/13 06:31:17;;;;;;;13.27;9.77;;;12.30;99.90;;;;;;5097040;28;20379;-39
2021/05/13 06:33:42;;;;;;;12.55;9.57;;;12.40;99.90;;;;;;5086217;28;20035;-39
2021/05/13 06:36:08;;;;;;;14.07;11.57;;;12.40;99.90;;;;;;5096133;28;20448;-36
2021/05/13 06:38:33;;;;;;;12.55;10.80;;;12.40;99.90;;;;;;5085728;28;20784;-39
2021/05/13 06:40:59;;;;;;;11.65;9.98;;;12.50;99.90;;;;;;5097506;28;20567;-40
2021/05/13 06:43:25;;;;;;;11.65;10.15;;;12.50;99.90;;;;;;5088414;28;20073;-41
2021/05/13 06:45:50;;;;;;;13.63;10.88;;;12.60;99.90;;;;;;5092387;28;20032;-43
2021/05/13 06:48:16;;;;;;;12.65;10.30;;;12.60;99.90;;;;;;5104838;28;20016;-38
2021/05/13 06:50:42;;;;;;;13.43;10.27;;;12.60;99.90;;;;;;5096238;28;20028;-40
2021/05/13 06:53:07;;;;;;;8.77;7.22;;;12.70;99.90;;;;;;5106563;28;20023;-39
2021/05/13 06:55:33;;;;;;;14.15;11.65;;;12.70;99.80;;;;;;5101049;28;20504;-36
2021/05/13 06:58:04;;;;;;;14.15;11.35;;;12.80;99.70;;;;;;5102815;28;20119;-39
2021/05/13 07:00:30;;;;;;;13.32;10.70;;;12.90;99.70;;;;;;5103625;28;20023;-39
2021/05/13 07:02:56;;;;;;;14.63;11.02;;;12.90;99.70;;;;;;5101217;28;20047;-40
2021/05/13 07:05:21;;;;;;;13.35;10.60;;;13.00;99.60;;;;;;5105844;28;20072;-42
2021/05/13 07:07:47;;;;;;;11.82;9.55;;;13.00;99.50;;;;;;5098728;28;20741;-40
2021/05/13 07:10:12;;;;;;;13.27;10.43;;;13.10;99.50;;;;;;5107079;28;20008;-39
2021/05/13 07:12:38;;;;;;;13.27;10.52;;;13.20;99.50;;;;;;5096379;28;20427;-38
2021/05/13 07:15:04;;;;;;;16.40;12.27;;;13.20;99.40;;;;;;5107823;28;20829;-40
2021/05/13 07:17:30;;;;;;;13.30;11.90;;;13.30;99.40;;;;;;5096289;28;20035;-39
2021/05/13 07:19:55;;;;;;;14.63;12.30;;;13.30;99.30;;;;;;5109057;28;20024;-40
2021/05/13 07:22:21;;;;;;;17.55;12.77;;;13.30;99.30;;;;;;5095680;28;20333;-39
2021/05/13 07:24:50;;;;;;;14.98;12.80;;;13.30;99.30;;;;;;5107687;28;20019;-39
2021/05/13 07:27:16;;;;;;;13.57;12.07;;;13.40;99.30;;;;;;5095528;28;20039;-39
2021/05/13 07:29:42;;;;;;;17.48;13.48;;;13.40;99.20;;;;;;5108342;28;20098;-39
2021/05/13 07:32:07;;;;;;;14.48;12.60;;;13.50;99.20;;;;;;5097941;28;20157;-38
2021/05/13 07:34:33;;;;;;;13.23;11.70;;;13.50;99.20;;;;;;5106336;28;20016;-38
2021/05/13 07:36:59;;;;;;;13.95;11.32;;;13.60;99.20;;;;;;5100421;28;20040;-40
2021/05/13 07:39:25;;;;;;;16.42;13.77;;;13.70;99.10;;;;;;5103375;28;20431;-39
2021/05/13 07:41:50;;;;;;;14.15;12.40;;;13.70;99.00;;;;;;5103135;28;20058;-39
2021/05/13 07:44:16;;;;;;;16.23;13.07;;;13.80;99.00;;;;;;5091399;28;20047;-37
2021/05/13 07:46:42;;;;;;;12.98;11.68;;;13.70;98.90;;;;;;5089358;28;20016;-36
2021/05/13 07:49:08;;;;;;;14.70;12.57;;;13.80;98.90;;;;;;5098815;28;20384;-39
2021/05/13 07:51:34;;;;;;;16.42;13.57;;;13.80;98.90;;;;;;5089618;28;20019;-40
2021/05/13 07:54:00;;;;;;;16.33;13.00;;;13.80;98.80;;;;;;5098925;28;20024;-40
2021/05/13 07:56:26;;;;;;;14.93;13.18;;;13.80;98.80;;;;;;5089215;28;20039;-38
2021/05/13 07:58:52;;;;;;;14.45;12.73;;;13.80;98.80;;;;;;5099137;28;20032;-39
2021/05/13 08:01:17;;;;;;;14.38;12.88;;;13.80;98.80;;;;;;5086942;28;20032;-39
2021/05/13 08:03:43;;;;;;;14.82;13.02;;;13.90;98.80;;;;;;5100342;28;20071;-38
2021/05/13 08:06:10;;;;;;;15.27;12.05;;;13.90;98.70;;;;;;5088165;28;20101;-38
2021/05/13 08:08:35;;;;;;;11.02;9.88;;;14.00;98.60;;;;;;5099315;28;20027;-40
2021/05/13 08:11:01;;;;;;;11.25;9.95;;;14.10;98.60;;;;;;5088639;28;20444;-40
2021/05/13 08:13:29;;;;;;;13.05;11.75;;;14.20;98.50;;;;;;5097151;28;20027;-38
2021/05/13 08:15:57;;;;;;;12.75;11.45;;;14.20;98.40;;;;;;5089817;28;20074;-39
2021/05/13 08:18:22;;;;;;;10.95;9.85;;;14.30;98.40;;;;;;5095996;28;20084;-39
2021/05/13 08:20:48;;;;;;;14.23;12.70;;;14.30;98.30;;;;;;5091697;28;20463;-42
2021/05/13 08:23:14;;;;;;;15.00;12.52;;;14.40;98.20;;;;;;5092876;28;20047;-39
2021/05/13 08:25:40;;;;;;;13.80;12.02;;;14.40;98.10;;;;;;5094987;28;20550;-40
2021/05/13 08:28:05;;;;;;;14.13;12.73;;;14.50;98.00;;;;;;5089578;28;20035;-40
2021/05/13 08:30:31;;;;;;;12.98;11.68;;;14.50;98.00;;;;;;5098380;28;20089;-40
2021/05/13 08:32:57;;;;;;;14.48;12.52;;;14.60;97.90;;;;;;5089087;28;20024;-39
2021/05/13 08:35:22;;;;;;;14.88;12.98;;;14.70;97.80;;;;;;5098349;28;20086;-39
2021/05/13 08:37:48;;;;;;;14.35;12.77;;;14.80;97.60;;;;;;5087325;28;20050;-39
2021/05/13 08:40:14;;;;;;;14.55;12.63;;;14.80;97.40;;;;;;5099476;28;20360;-37
2021/05/13 08:42:39;;;;;;;14.80;13.23;;;14.90;97.30;;;;;;5086536;28;20487;-40
2021/05/13 08:45:06;;;;;;;14.15;12.75;;;15.00;97.00;;;;;;5099610;28;20024;-38
2021/05/13 08:47:37;;;;;;;12.48;11.07;;;15.10;96.60;;;;;;5087203;28;20123;-41
2021/05/13 08:50:04;;;;;;;13.65;12.25;;;15.20;96.40;;;;;;5098820;28;20031;-40
2021/05/13 08:52:30;;;;;;;12.88;11.23;;;15.30;96.20;;;;;;5094860;28;20032;-42
2021/05/13 08:55:00;;;;;;;10.70;9.70;;;15.40;96.10;;;;;;5092429;28;20377;-40
2021/05/13 08:57:26;;;;;;;13.88;12.40;;;15.60;96.00;;;;;;5103940;28;20474;-40
2021/05/13 08:59:54;;;;;;;14.50;12.65;;;15.70;95.70;;;;;;5098475;28;20504;-42
2021/05/13 09:02:21;;;;;;;12.23;10.25;;;15.80;95.30;;;;;;5094155;28;20791;-42
2021/05/13 09:04:54;;;;;;;13.27;11.88;;;15.90;95.20;;;;;;5089413;28;20020;-41
2021/05/13 09:07:22;;;;;;;16.70;12.30;;;15.90;94.70;;;;;;5092349;28;20400;-40
2021/05/13 09:10:10;;;;;;;11.85;10.65;;;16.00;94.60;;;;;;5092907;28;20022;-39
2021/05/13 09:12:50;;;;;;;11.20;10.02;;;16.10;94.50;;;;;;5104596;28;20055;-39
2021/05/13 09:15:18;;;;;;;10.32;9.32;;;16.30;94.30;;;;;;5096999;28;20022;-41
2021/05/13 09:17:47;;;;;;;10.05;8.18;;;16.40;94.20;;;;;;5099874;28;20039;-41
2021/05/13 09:20:28;;;;;;;12.45;10.90;;;16.50;94.10;;;;;;5099081;28;20012;-40
2021/05/13 09:23:12;;;;;;;11.00;9.38;;;16.70;93.60;;;;;;5100067;28;20032;-39
2021/05/13 09:25:38;;;;;;;13.40;10.45;;;16.90;93.50;;;;;;5096371;28;20379;-38
2021/05/13 09:28:04;;;;;;;11.05;9.55;;;16.90;92.90;;;;;;5100366;28;20024;-38
2021/05/13 09:30:30;;;;;;;10.73;9.65;;;17.10;92.90;;;;;;5100871;28;20020;-38
2021/05/13 09:33:01;;;;;;;9.82;8.85;;;17.20;92.70;;;;;;5098653;28;20125;-40
2021/05/13 09:35:32;;;;;;;9.20;8.20;;;17.30;92.20;;;;;;5103389;28;20311;-40
2021/05/13 09:37:59;;;;;;;7.47;5.80;;;17.40;92.10;;;;;;5097740;28;20386;-41
2021/05/13 09:40:35;;;;;;;8.00;6.72;;;17.50;92.10;;;;;;5104143;28;20039;-39
2021/05/13 09:43:16;;;;;;;8.18;6.80;;;17.60;91.90;;;;;;5097165;28;20019;-39
2021/05/13 09:45:56;;;;;;;9.82;6.90;;;17.70;91.50;;;;;;5087209;28;20467;-41
2021/05/13 09:48:43;;;;;;;6.63;5.75;;;17.80;91.30;;;;;;5094066;28;20424;-39
2021/05/13 09:51:21;;;;;;;7.30;4.75;;;17.90;91.20;;;;;;5091154;28;20064;-39
2021/05/13 09:53:49;;;;;;;6.00;4.97;;;18.00;90.80;;;;;;5091128;28;20091;-40
2021/05/13 09:56:25;;;;;;;4.30;3.85;;;18.10;90.50;;;;;;5090460;28;20100;-39
2021/05/13 09:58:51;;;;;;;4.88;3.70;;;18.30;89.70;;;;;;5092701;28;20123;-39
2021/05/13 10:01:18;;;;;;;4.97;3.08;;;18.40;88.20;;;;;;5088307;28;20103;-38
2021/05/13 10:03:45;;;;;;;4.70;2.90;;;18.50;88.20;;;;;;5094657;28;20058;-41
2021/05/13 10:06:11;;;;;;;4.80;2.05;;;18.60;88.30;;;;;;5087474;28;20040;-41
2021/05/13 10:08:41;;;;;;;5.05;2.25;;;18.70;87.00;;;;;;5096670;28;20478;-39
2021/05/13 10:11:08;;;;;;;2.92;1.85;;;18.70;86.80;;;;;;5087211;28;20021;-39
2021/05/13 10:13:34;;;;;;;2.22;1.60;;;18.70;86.00;;;;;;5097071;28;20096;-40
2021/05/13 10:16:03;;;;;;;3.97;1.70;;;18.70;85.90;;;;;;5085436;28;20043;-38
2021/05/13 10:18:38;;;;;;;4.47;2.38;;;18.80;84.90;;;;;;5097585;28;20028;-42
2021/05/13 10:21:14;;;;;;;3.05;1.73;;;18.80;83.90;;;;;;5085651;28;20056;-41
2021/05/13 10:23:41;;;;;;;5.05;1.60;;;18.70;82.30;;;;;;5100774;28;20028;-35
2021/05/13 10:26:20;;;;;;;2.53;1.50;;;18.70;82.60;;;;;;5088696;28;20066;-37
2021/05/13 10:28:45;;;;;;;5.00;2.08;;;18.80;83.20;;;;;;5097887;28;20080;-41
2021/05/13 10:31:11;;;;;;;6.97;2.10;;;18.80;82.30;;;;;;5109925;28;20059;-42
2021/05/13 10:33:50;;;;;;;5.40;2.15;;;18.90;82.30;;;;;;5097108;28;20031;-38
2021/05/13 10:36:20;;;;;;;3.03;2.25;;;19.00;80.80;;;;;;5109813;28;20058;-39
2021/05/13 10:38:48;;;;;;;3.05;2.30;;;19.00;81.20;;;;;;5096404;28;20111;-39
2021/05/13 10:41:29;;;;;;;3.15;1.88;;;19.00;80.60;;;;;;5109800;28;20182;-36
2021/05/13 10:43:56;;;;;;;2.85;2.00;;;19.10;80.10;;;;;;5100397;28;20106;-39
2021/05/13 10:46:26;;;;;;;4.45;2.30;;;19.10;80.20;;;;;;5109871;28;20023;-39
2021/05/13 10:49:11;;;;;;;3.45;2.15;;;19.10;79.60;;;;;;5096885;28;20087;-39
2021/05/13 10:51:37;;;;;;;5.55;2.00;;;19.10;79.80;;;;;;5089449;28;20079;-38
2021/05/13 10:54:02;;;;;;;4.25;2.40;;;19.20;79.20;;;;;;5093056;28;20063;-40
2021/05/13 10:56:28;;;;;;;4.35;2.17;;;19.20;78.50;;;;;;5108700;28;20024;-39
2021/05/13 10:59:07;;;;;;;2.55;1.58;;;19.20;78.40;;;;;;5100314;28;20054;-38
2021/05/13 11:01:45;;;;;;;3.08;1.55;;;19.20;78.00;;;;;;5107607;28;20077;-39
2021/05/13 11:04:34;;;;;;;2.55;1.58;;;19.30;78.10;;;;;;5098947;28;20466;-40
2021/05/13 11:07:04;;;;;;;5.13;1.92;;;19.30;78.00;;;;;;5089364;28;20034;-39
2021/05/13 11:09:43;;;;;;;4.45;2.00;;;19.40;75.60;;;;;;5092698;28;20448;-39
2021/05/13 11:12:11;;;;;;;4.03;2.00;;;19.30;75.40;;;;;;5089001;28;20063;-39
2021/05/13 11:17:45;;;;;;;4.88;1.67;;;19.20;74.70;;;;;;5088729;28;20097;-39
2021/05/13 11:20:26;;;;;;;3.78;2.08;;;19.20;74.20;;;;;;5095210;28;20024;-38
2021/05/13 11:23:04;;;;;;;2.83;1.80;;;19.20;74.00;;;;;;5106621;28;20058;-39
2021/05/13 11:25:49;;;;;;;3.10;1.67;;;19.40;74.20;;;;;;5106797;28;20027;-40
2021/05/13 11:28:24;;;;;;;2.50;1.50;;;19.60;74.70;;;;;;5107900;28;20059;-40
2021/05/13 11:30:52;;;;;;;2.97;1.85;;;19.80;74.70;;;;;;5107092;28;20510;-37
2021/05/13 11:33:20;;;;;;;3.38;2.00;;;19.90;73.20;;;;;;5105679;28;20036;-39
2021/05/13 11:35:46;;;;;;;3.58;3.15;;;20.10;73.30;;;;;;5098219;28;20026;-39
2021/05/13 11:38:15;;;;;;;3.45;2.45;;;20.20;72.30;;;;;;5106643;28;20107;-40
2021/05/13 11:40:41;;;;;;;3.05;2.35;;;20.30;72.70;;;;;;5093839;28;20027;-41
2021/05/13 11:43:28;;;;;;;4.15;2.47;;;20.40;72.90;;;;;;5106895;28;20762;-40
2021/05/13 11:46:02;;;;;;;3.72;2.15;;;20.40;72.70;;;;;;5089963;28;20107;-40
2021/05/13 11:48:41;;;;;;;3.53;2.10;;;20.40;72.90;;;;;;5106742;28;20027;-40
2021/05/13 11:51:10;;;;;;;3.08;2.00;;;20.30;73.00;;;;;;5094356;28;20024;-40
2021/05/13 11:53:37;;;;;;;3.45;1.85;;;20.40;73.30;;;;;;5106244;28;20055;-40
2021/05/13 11:56:05;;;;;;;2.92;2.20;;;20.40;73.30;;;;;;5096033;28;20020;-40
2021/05/13 11:58:43;;;;;;;3.75;2.85;;;20.40;73.10;;;;;;5106845;28;20023;-40
2021/05/13 12:01:49;;;;;;;4.72;3.47;;;20.40;73.00;;;;;;5097517;28;20032;-39
2021/05/13 12:04:16;;;;;;;5.20;3.35;;;20.30;73.00;;;;;;5043078;28;20094;-40
2021/05/13 12:06:48;;;;;;;6.03;3.78;;;20.20;72.10;;;;;;5091837;28;20340;-40
2021/05/13 12:09:14;;;;;;;;;;;20.20;71.90;;;;;;5109005;28;20070;-42
2021/05/13 12:11:41;;;;;;;5.95;4.18;;;20.10;71.50;;;;;;5096260;28;20236;-39
2021/05/13 12:14:09;;;;;;;4.43;3.90;;;20.10;71.30;;;;;;5107021;28;20118;-40
2021/05/13 12:16:35;;;;;;;4.55;3.97;;;20.00;71.30;;;;;;5097938;28;20111;-41
2021/05/13 12:19:07;;;;;;;5.88;4.65;;;19.90;71.60;;;;;;5105025;28;20037;-40
2021/05/13 12:21:36;;;;;;;7.00;4.05;;;20.00;71.20;;;;;;5098586;28;20024;-40
2021/05/13 12:24:03;;;;;;;5.38;3.78;;;20.00;70.90;;;;;;5103822;28;20024;-40
2021/05/13 12:26:32;;;;;;;4.70;3.25;;;20.10;70.50;;;;;;5101659;28;20012;-39
2021/05/13 12:28:58;;;;;;;5.88;3.47;;;20.20;70.50;;;;;;5100847;28;20179;-40
2021/05/13 12:31:39;;;;;;;4.63;3.10;;;20.30;70.30;;;;;;5103421;28;20031;-38
2021/05/13 12:34:06;;;;;;;4.07;3.30;;;20.40;70.50;;;;;;5100599;28;20058;-39
2021/05/13 12:36:33;;;;;;;5.18;3.63;;;20.50;69.90;;;;;;5103763;28;20043;-40
2021/05/13 12:38:59;;;;;;;4.13;3.10;;;20.50;69.20;;;;;;5098156;28;20054;-38
2021/05/13 12:41:26;;;;;;;2.65;2.45;;;20.50;69.50;;;;;;5106093;28;20459;-39
2021/05/13 12:44:14;;;;;;;3.40;2.63;;;20.60;69.80;;;;;;5095225;28;20043;-40
2021/05/13 12:46:46;;;;;;;5.53;3.10;;;20.60;68.90;;;;;;5104661;28;20080;-38
2021/05/13 12:49:27;;;;;;;5.88;3.50;;;20.50;68.60;;;;;;5096613;28;20026;-40
2021/05/13 12:52:03;;;;;;;3.72;3.15;;;20.60;69.10;;;;;;5104546;28;20016;-39
2021/05/13 12:54:31;;;;;;;5.53;3.20;;;20.60;68.80;;;;;;5098222;28;20027;-38
2021/05/13 12:57:18;;;;;;;6.13;3.25;;;20.60;68.70;;;;;;5105177;28;20026;-39
2021/05/13 12:59:51;;;;;;;4.93;3.33;;;20.60;69.50;;;;;;5098517;28;20028;-39